PWSweather.com
Personal Weather Stations
Station Observations
BREEJEDURP
'sGravenzande, WestlandNL

'sGravenzandeWestlandNL

Lat: 52.00095260000001, Lon: 4.174256600000035

Elevation: 3

Station Type: Davis Vantage Pro2 Plus

Latest ConditionsUpdated 12:09:00 PM GMT+01:01 Monday, Jun 24, 2019
Currently Today's Max Today's Min Today's Average
Temperature 87.8°F31.0°C 87.8°F31.0°C 70.0°F21.1°C 76.7°F24.8°C
Dew Point 67.4°F19.7°C 67.9°F19.9°C 58.7°F14.8°C 62.3°F16.8°C
Winds 3.0 mph SE4.8 kmh SE 8.0 mph -12.9 kmh - - 4.3 mph 6.9 kmh
Wind Gusts 6.0 mph9.7 kmh 10.0 mph16.1 kmh - -
Humidity 51% 70% 50% 62%
Pressure 30.02 in1016.6 mb 30.03 in1016.9 mb 30.02 in1016.6 mb -
Hour Temp Dew Point Humidity Winds Wind Gusts Pressure Precip Precip Rate Daily Precip Total
12:09 PM 87.8°F31.0°C 67.4°F19.7°C 51% 3.0 mph SE4.8 kmh SE 6.0 mph9.7 kmh 30.02 in1016.6 mb 0.00 in0.0 mm 0.00 in0.0 mm 0.00 in0.0 mm
12:04 PM 87.8°F31.0°C 67.9°F19.9°C 52% 6.0 mph SE9.7 kmh SE 10.0 mph16.1 kmh 30.02 in1016.6 mb 0.00 in0.0 mm 0.00 in0.0 mm 0.00 in0.0 mm
11:59 AM 87.4°F30.8°C 66.5°F19.2°C 50% 5.0 mph SE8.0 kmh SE 10.0 mph16.1 kmh 30.02 in1016.6 mb 0.00 in0.0 mm 0.00 in0.0 mm 0.00 in0.0 mm
10:09 AM 83.5°F28.6°C 67.1°F19.5°C 58% 3.0 mph S4.8 kmh S 5.0 mph8.0 kmh 30.03 in1016.9 mb 0.00 in0.0 mm 0.00 in0.0 mm 0.00 in0.0 mm
10:04 AM 82.6°F28.1°C 66.3°F19.1°C 58% 3.0 mph ESE4.8 kmh ESE 5.0 mph8.0 kmh 30.03 in1016.9 mb 0.00 in0.0 mm 0.00 in0.0 mm 0.00 in0.0 mm
09:59 AM 83.1°F28.4°C 66.3°F19.1°C 57% 4.0 mph SSE6.4 kmh SSE 8.0 mph12.9 kmh 30.03 in1016.9 mb 0.00 in0.0 mm 0.00 in0.0 mm 0.00 in0.0 mm
08:09 AM 77.2°F25.1°C 64.0°F17.8°C 64% 5.0 mph ESE8.0 kmh ESE 9.0 mph14.5 kmh 30.03 in1016.9 mb 0.00 in0.0 mm 0.00 in0.0 mm 0.00 in0.0 mm
08:04 AM 77.2°F25.1°C 63.6°F17.6°C 63% 8.0 mph ESE12.9 kmh ESE 10.0 mph16.1 kmh 30.03 in1016.9 mb 0.00 in0.0 mm 0.00 in0.0 mm 0.00 in0.0 mm
07:59 AM 76.8°F24.9°C 63.7°F17.6°C 64% 5.0 mph ESE8.0 kmh ESE 8.0 mph12.9 kmh 30.02 in1016.6 mb 0.00 in0.0 mm 0.00 in0.0 mm 0.00 in0.0 mm
06:09 AM 71.1°F21.7°C 60.4°F15.8°C 69% 6.0 mph ESE9.7 kmh ESE 9.0 mph14.5 kmh 30.02 in1016.6 mb 0.00 in0.0 mm 0.00 in0.0 mm 0.00 in0.0 mm
06:04 AM 71.1°F21.7°C 60.8°F16.0°C 70% 4.0 mph ESE6.4 kmh ESE 7.0 mph11.3 kmh 30.02 in1016.6 mb 0.00 in0.0 mm 0.00 in0.0 mm 0.00 in0.0 mm
05:59 AM 70.9°F21.6°C 60.6°F15.9°C 70% 5.0 mph ESE8.0 kmh ESE 7.0 mph11.3 kmh 30.02 in1016.6 mb 0.00 in0.0 mm 0.00 in0.0 mm 0.00 in0.0 mm
04:09 AM 70.0°F21.1°C 58.9°F14.9°C 68% 3.0 mph ESE4.8 kmh ESE 6.0 mph9.7 kmh 30.02 in1016.6 mb 0.00 in0.0 mm 0.00 in0.0 mm 0.00 in0.0 mm
04:04 AM 70.0°F21.1°C 58.9°F14.9°C 68% 4.0 mph ESE6.4 kmh ESE 8.0 mph12.9 kmh 30.02 in1016.6 mb 0.00 in0.0 mm 0.00 in0.0 mm 0.00 in0.0 mm
03:59 AM 70.0°F21.1°C 58.9°F14.9°C 68% 3.0 mph ESE4.8 kmh ESE 4.0 mph6.4 kmh 30.02 in1016.6 mb 0.00 in0.0 mm 0.00 in0.0 mm 0.00 in0.0 mm
02:09 AM 72.3°F22.4°C 59.0°F15.0°C 63% 3.0 mph ESE4.8 kmh ESE 4.0 mph6.4 kmh 30.02 in1016.6 mb 0.00 in0.0 mm 0.00 in0.0 mm 0.00 in0.0 mm
02:04 AM 72.3°F22.4°C 59.0°F15.0°C 63% 2.0 mph E3.2 kmh E 4.0 mph6.4 kmh 30.03 in1016.9 mb 0.00 in0.0 mm 0.00 in0.0 mm 0.00 in0.0 mm
01:59 AM 72.7°F22.6°C 59.3°F15.2°C 63% 2.0 mph E3.2 kmh E 2.0 mph3.2 kmh 30.03 in1016.9 mb 0.00 in0.0 mm 0.00 in0.0 mm 0.00 in0.0 mm
12:09 AM 75.0°F23.9°C 59.2°F15.1°C 58% 7.0 mph ESE11.3 kmh ESE 9.0 mph14.5 kmh 30.03 in1016.9 mb 0.00 in0.0 mm 0.00 in0.0 mm 0.00 in0.0 mm
12:04 AM 75.0°F23.9°C 58.7°F14.8°C 57% 5.0 mph SE8.0 kmh SE 9.0 mph14.5 kmh 30.03 in1016.9 mb 0.00 in0.0 mm 0.00 in0.0 mm 0.00 in0.0 mm